createdAt,value
2022-12-20T00:01:00.609Z,76.92
2022-12-20T00:03:28.234Z,77.02
2022-12-20T00:05:55.916Z,77.39
2022-12-20T00:08:23.547Z,76.96
2022-12-20T00:10:52.530Z,76.65
2022-12-20T00:13:20.100Z,76.92
2022-12-20T00:15:47.731Z,76.57
2022-12-20T00:18:15.392Z,76.98
2022-12-20T00:20:43.022Z,77.08
2022-12-20T00:23:10.630Z,77.00
2022-12-20T00:25:38.234Z,76.88
2022-12-20T00:28:07.286Z,77.39
2022-12-20T00:30:36.633Z,77.71
2022-12-20T00:33:04.206Z,77.99
2022-12-20T00:35:31.835Z,77.83
2022-12-20T00:37:59.437Z,77.69
2022-12-20T00:40:27.386Z,77.73
2022-12-20T00:42:54.965Z,77.83
2022-12-20T00:45:23.913Z,77.76
2022-12-20T00:47:51.535Z,78.04
2022-12-20T00:50:19.099Z,77.61
2022-12-20T00:52:46.788Z,77.44
2022-12-20T00:55:14.377Z,77.26
2022-12-20T00:57:41.985Z,77.15
2022-12-20T01:00:11.499Z,77.06
2022-12-20T01:02:40.563Z,77.58
2022-12-20T01:05:08.973Z,76.97
2022-12-20T01:07:36.585Z,77.11
2022-12-20T01:10:04.448Z,76.78
2022-12-20T01:12:32.079Z,76.64
2022-12-20T01:14:59.666Z,76.71
2022-12-20T01:17:27.300Z,76.12
2022-12-20T01:19:56.258Z,76.33
2022-12-20T01:22:23.886Z,76.25
2022-12-20T01:24:51.699Z,76.55
2022-12-20T01:27:19.298Z,76.78
2022-12-20T01:29:46.938Z,76.55
2022-12-20T01:32:14.606Z,76.41
2022-12-20T01:34:42.677Z,76.77
2022-12-20T01:37:11.584Z,76.62
2022-12-20T01:39:39.609Z,76.63
2022-12-20T01:42:07.333Z,76.39
2022-12-20T01:45:01.433Z,76.27
2022-12-20T01:47:32.686Z,76.31
2022-12-20T01:50:01.347Z,76.13
2022-12-20T01:52:34.895Z,76.65
2022-12-20T01:55:08.452Z,76.50
2022-12-20T01:57:40.865Z,76.60
2022-12-20T02:00:10.271Z,77.06
2022-12-20T02:02:39.183Z,77.49
2022-12-20T02:05:07.838Z,77.38
2022-12-20T02:07:39.705Z,77.08
2022-12-20T02:10:10.177Z,77.18
2022-12-20T02:12:42.617Z,77.10
2022-12-20T02:15:22.787Z,76.95
2022-12-20T02:18:02.613Z,77.04
2022-12-20T02:21:07.137Z,76.85
2022-12-20T02:24:04.018Z,76.58
2022-12-20T02:27:03.050Z,76.57
2022-12-20T02:29:36.383Z,76.37
2022-12-20T02:32:12.820Z,76.45
2022-12-20T02:34:42.382Z,76.61
2022-12-20T02:37:10.256Z,76.42
2022-12-20T02:39:42.387Z,76.98
2022-12-20T02:42:12.294Z,76.56
2022-12-20T02:45:01.492Z,76.68
2022-12-20T02:47:35.210Z,76.62
2022-12-20T02:50:05.345Z,76.38
2022-12-20T02:52:34.155Z,76.57
2022-12-20T02:55:03.092Z,76.08
2022-12-20T02:57:38.841Z,75.82
2022-12-20T03:00:09.828Z,74.86
2022-12-20T03:02:53.192Z,73.58
2022-12-20T03:05:22.799Z,74.16
2022-12-20T03:07:51.057Z,74.47
2022-12-20T03:10:19.588Z,74.31
2022-12-20T03:12:47.376Z,74.78
2022-12-20T03:15:15.379Z,74.92
2022-12-20T03:17:44.415Z,75.33
2022-12-20T03:20:12.287Z,75.43
2022-12-20T03:22:39.969Z,75.07
2022-12-20T03:25:08.465Z,74.76
2022-12-20T03:27:36.089Z,74.58
2022-12-20T03:30:04.527Z,74.67
2022-12-20T03:32:32.139Z,74.82
2022-12-20T03:35:01.100Z,75.17
2022-12-20T03:37:28.763Z,75.17
2022-12-20T03:39:56.385Z,74.71
2022-12-20T03:42:24.005Z,74.47
2022-12-20T03:44:51.609Z,74.76
2022-12-20T03:47:19.416Z,74.82
2022-12-20T03:49:47.024Z,75.06
2022-12-20T03:52:16.313Z,74.94
2022-12-20T03:54:43.916Z,74.49
2022-12-20T03:57:11.556Z,74.17
2022-12-20T03:59:39.169Z,74.50
2022-12-20T04:02:06.851Z,75.05
2022-12-20T04:04:34.547Z,74.92
2022-12-20T04:07:02.316Z,74.88
2022-12-20T04:09:31.540Z,75.02
2022-12-20T04:11:59.137Z,75.14
2022-12-20T04:14:27.085Z,74.88
2022-12-20T04:16:54.669Z,74.87
2022-12-20T04:19:22.254Z,74.10
2022-12-20T04:21:49.873Z,73.41
2022-12-20T04:24:17.986Z,73.47
2022-12-20T04:26:46.926Z,72.88
2022-12-20T04:29:14.569Z,73.19
2022-12-20T04:31:42.649Z,72.64
2022-12-20T04:34:10.436Z,73.21
2022-12-20T04:36:38.044Z,72.87
2022-12-20T04:39:05.741Z,73.01
2022-12-20T04:41:33.393Z,72.76
2022-12-20T04:44:02.352Z,72.79
2022-12-20T04:46:30.096Z,72.47
2022-12-20T04:48:59.564Z,72.84
2022-12-20T04:51:27.665Z,72.60
2022-12-20T04:53:54.454Z,73.23
2022-12-20T04:56:25.118Z,73.86
2022-12-20T04:58:54.786Z,74.30
2022-12-20T05:01:24.065Z,74.66
2022-12-20T05:03:52.309Z,74.21
2022-12-20T05:06:20.015Z,74.73
2022-12-20T05:08:48.102Z,74.57
2022-12-20T05:11:15.835Z,74.05
2022-12-20T05:13:43.450Z,73.83
2022-12-20T05:16:11.271Z,73.19
2022-12-20T05:18:46.470Z,73.77
2022-12-20T05:21:33.997Z,74.37
2022-12-20T05:24:19.474Z,75.22
2022-12-20T05:26:47.054Z,75.25
2022-12-20T05:29:14.620Z,75.06
2022-12-20T05:31:42.347Z,74.58
2022-12-20T05:34:11.344Z,75.07
2022-12-20T05:36:38.947Z,75.28
2022-12-20T05:39:07.112Z,75.36
2022-12-20T05:41:34.719Z,73.98
2022-12-20T05:44:02.342Z,73.62
2022-12-20T05:46:29.936Z,73.31
2022-12-20T05:48:57.572Z,73.59
2022-12-20T05:51:26.682Z,74.18
2022-12-20T05:53:54.251Z,74.44
2022-12-20T05:56:21.886Z,74.48
2022-12-20T05:58:49.483Z,74.65
2022-12-20T06:01:17.155Z,75.04
2022-12-20T06:03:45.748Z,74.40
2022-12-20T06:06:15.060Z,74.34
2022-12-20T06:08:44.476Z,74.38
2022-12-20T06:11:12.233Z,74.67
2022-12-20T06:13:39.847Z,74.41
2022-12-20T06:16:08.278Z,75.06
2022-12-20T06:18:35.903Z,75.02
2022-12-20T06:21:03.583Z,75.37
2022-12-20T06:23:31.186Z,75.77
2022-12-20T06:26:00.126Z,75.47
2022-12-20T06:28:27.757Z,75.51
2022-12-20T06:30:56.032Z,75.32
2022-12-20T06:33:23.733Z,75.46
2022-12-20T06:35:52.202Z,76.00
2022-12-20T06:38:20.088Z,76.09
2022-12-20T06:40:47.734Z,76.40
2022-12-20T06:43:17.687Z,75.97
2022-12-20T06:45:45.368Z,75.43
2022-12-20T06:48:13.262Z,75.26
2022-12-20T06:50:40.931Z,75.11
2022-12-20T06:53:08.820Z,75.32
2022-12-20T06:55:36.397Z,75.14
2022-12-20T06:58:04.982Z,75.50
2022-12-20T07:00:34.272Z,75.68
2022-12-20T07:03:01.964Z,75.73
2022-12-20T07:05:29.637Z,75.62
2022-12-20T07:07:57.335Z,75.71
2022-12-20T07:10:29.252Z,75.78
2022-12-20T07:13:01.906Z,75.78
2022-12-20T07:15:29.828Z,75.91
2022-12-20T07:17:58.739Z,75.95
2022-12-20T07:20:26.358Z,75.52
2022-12-20T07:22:54.090Z,75.53
2022-12-20T07:25:21.891Z,75.25
2022-12-20T07:27:49.758Z,75.63
2022-12-20T07:30:18.035Z,75.89
2022-12-20T07:32:45.642Z,75.74
2022-12-20T07:35:15.714Z,76.03
2022-12-20T07:37:43.785Z,75.69
2022-12-20T07:40:13.231Z,75.92
2022-12-20T07:42:48.023Z,75.76
2022-12-20T07:45:16.403Z,75.49
2022-12-20T07:47:44.133Z,74.90
2022-12-20T07:50:12.304Z,73.74
2022-12-20T07:52:45.851Z,73.37
2022-12-20T07:55:14.229Z,73.13
2022-12-20T07:57:45.928Z,73.68
2022-12-20T08:00:15.186Z,73.28
2022-12-20T08:02:47.562Z,73.28
2022-12-20T08:05:16.093Z,73.19
2022-12-20T08:07:47.076Z,73.31
2022-12-20T08:10:16.962Z,73.75
2022-12-20T08:12:46.125Z,74.11
2022-12-20T08:15:14.164Z,74.25
2022-12-20T08:17:41.772Z,74.15
2022-12-20T08:20:10.848Z,74.66
2022-12-20T08:22:38.459Z,74.76
2022-12-20T08:25:08.912Z,75.34
2022-12-20T08:27:36.598Z,75.44
2022-12-20T08:30:04.561Z,75.06
2022-12-20T08:32:32.133Z,74.91
2022-12-20T08:34:59.726Z,74.95
2022-12-20T08:37:27.305Z,74.61
2022-12-20T08:39:54.898Z,74.74
2022-12-20T08:42:23.861Z,75.51
2022-12-20T08:44:52.564Z,75.30
2022-12-20T08:47:20.179Z,75.40
2022-12-20T08:49:48.323Z,75.44
2022-12-20T08:52:16.121Z,75.12
2022-12-20T08:54:43.856Z,74.72
2022-12-20T08:57:11.476Z,74.66
2022-12-20T08:59:40.503Z,75.00
2022-12-20T09:02:08.451Z,74.91
2022-12-20T09:04:36.315Z,74.99
2022-12-20T09:07:03.971Z,74.65
2022-12-20T09:09:32.242Z,75.26
2022-12-20T09:11:59.889Z,74.65
2022-12-20T09:14:27.845Z,74.07
2022-12-20T09:16:56.820Z,73.54
2022-12-20T09:19:24.433Z,72.35
2022-12-20T09:21:52.028Z,72.27
2022-12-20T09:24:19.706Z,72.45
2022-12-20T09:26:49.989Z,72.03
2022-12-20T09:29:27.009Z,71.64
2022-12-20T09:31:58.695Z,71.67
2022-12-20T09:34:26.530Z,71.37
2022-12-20T09:36:54.140Z,71.39
2022-12-20T09:39:22.218Z,72.08
2022-12-20T09:41:50.170Z,71.67
2022-12-20T09:44:21.445Z,71.40
2022-12-20T09:46:55.323Z,71.68
2022-12-20T09:49:28.998Z,71.60
2022-12-20T09:52:17.513Z,72.36
2022-12-20T09:54:54.548Z,71.68
2022-12-20T09:57:30.978Z,71.52
2022-12-20T09:59:58.957Z,71.49
2022-12-20T10:05:26.690Z,71.51
2022-12-20T10:08:02.146Z,71.72
2022-12-20T10:10:52.489Z,72.56
2022-12-20T10:13:36.117Z,72.55
2022-12-20T10:16:17.360Z,72.85
2022-12-20T10:18:57.276Z,72.41
2022-12-20T10:21:34.967Z,71.75
2022-12-20T10:24:06.279Z,71.66
2022-12-20T10:26:35.612Z,72.45
2022-12-20T10:29:03.201Z,72.17
2022-12-20T10:31:30.844Z,72.24
2022-12-20T10:33:58.866Z,71.76
2022-12-20T10:36:30.128Z,71.90
2022-12-20T10:38:59.228Z,72.06
2022-12-20T10:41:28.926Z,72.10
2022-12-20T10:44:00.971Z,72.71
2022-12-20T10:46:42.113Z,73.73
2022-12-20T10:49:28.483Z,74.43
2022-12-20T10:51:59.543Z,74.23
2022-12-20T10:54:32.039Z,73.78
2022-12-20T10:57:02.233Z,73.45
2022-12-20T10:59:34.580Z,72.70
2022-12-20T11:02:03.474Z,73.25
2022-12-20T11:04:33.426Z,73.23
2022-12-20T11:07:04.788Z,73.70
2022-12-20T11:09:34.361Z,73.62
2022-12-20T11:12:07.684Z,73.54
2022-12-20T11:14:39.556Z,73.30
2022-12-20T11:17:20.982Z,72.61
2022-12-20T11:20:23.068Z,72.86
2022-12-20T11:22:59.532Z,73.08
2022-12-20T11:25:48.333Z,72.54
2022-12-20T11:28:31.980Z,73.19
2022-12-20T11:31:12.287Z,73.44
2022-12-20T11:33:53.806Z,74.34
2022-12-20T11:36:34.656Z,74.65
2022-12-20T11:39:10.939Z,74.71
2022-12-20T11:41:45.252Z,75.25
2022-12-20T11:44:26.521Z,75.27
2022-12-20T11:47:09.715Z,73.85
2022-12-20T11:50:01.430Z,73.64
2022-12-20T11:52:36.096Z,73.27
2022-12-20T11:55:17.842Z,72.50
2022-12-20T11:58:16.809Z,72.03
2022-12-20T12:00:41.228Z,71.81
2022-12-20T12:03:14.926Z,71.96
2022-12-20T12:05:46.698Z,71.72
2022-12-20T12:08:19.887Z,71.63
2022-12-20T12:10:58.077Z,72.02
2022-12-20T12:13:29.325Z,72.37
2022-12-20T12:16:04.346Z,72.64
2022-12-20T12:18:34.016Z,73.56
2022-12-20T12:21:09.336Z,74.26
2022-12-20T12:23:46.256Z,74.21
2022-12-20T12:26:21.227Z,73.71
2022-12-20T12:28:54.324Z,73.58
2022-12-20T12:31:28.013Z,73.26
2022-12-20T12:34:07.326Z,73.24
2022-12-20T12:37:06.431Z,74.11
2022-12-20T12:39:58.594Z,74.39
2022-12-20T12:42:49.347Z,74.47
2022-12-20T12:45:21.835Z,74.89
2022-12-20T12:47:55.081Z,75.09
2022-12-20T12:50:27.408Z,75.22
2022-12-20T12:52:58.163Z,75.30
2022-12-20T12:55:41.285Z,74.95
2022-12-20T12:58:34.144Z,74.99
2022-12-20T13:01:05.410Z,74.27
2022-12-20T13:03:47.454Z,73.73
2022-12-20T13:06:56.865Z,73.43
2022-12-20T13:09:39.219Z,73.51
2022-12-20T13:12:49.883Z,73.76
2022-12-20T13:15:53.904Z,73.72
2022-12-20T13:18:25.500Z,74.26
2022-12-20T13:21:32.744Z,74.88
2022-12-20T13:24:38.930Z,75.30
2022-12-20T13:27:28.736Z,75.28
2022-12-20T13:30:03.451Z,75.59
2022-12-20T13:32:56.642Z,76.12
2022-12-20T13:35:42.006Z,76.24
2022-12-20T13:38:39.557Z,76.47
2022-12-20T13:41:20.139Z,76.49
2022-12-20T13:43:49.754Z,76.46
2022-12-20T13:46:23.317Z,76.41
2022-12-20T13:48:57.122Z,76.47
2022-12-20T13:51:26.182Z,76.67
2022-12-20T13:53:55.522Z,76.84
2022-12-20T13:56:37.339Z,76.44
2022-12-20T13:59:08.286Z,76.64
2022-12-20T14:01:36.914Z,76.73
2022-12-20T14:04:07.950Z,76.77
2022-12-20T14:06:36.173Z,76.82
2022-12-20T14:09:05.728Z,76.90
2022-12-20T14:11:33.404Z,76.94
2022-12-20T14:14:02.587Z,77.08
2022-12-20T14:16:32.075Z,77.12
2022-12-20T14:19:04.037Z,76.95
2022-12-20T14:21:36.851Z,76.60
2022-12-20T14:24:05.231Z,76.55
2022-12-20T14:26:39.903Z,76.28
2022-12-20T14:29:13.883Z,76.17
2022-12-20T14:31:43.785Z,76.06
2022-12-20T14:34:17.021Z,75.88
2022-12-20T14:36:47.830Z,75.67
2022-12-20T14:39:26.066Z,75.57
2022-12-20T14:41:58.480Z,75.50
2022-12-20T14:44:28.036Z,75.20
2022-12-20T14:46:58.139Z,75.13
2022-12-20T14:49:30.238Z,75.32
2022-12-20T14:52:15.494Z,75.61
2022-12-20T14:57:41.257Z,75.84
2022-12-20T15:00:22.239Z,76.04
2022-12-20T15:02:53.714Z,76.05
2022-12-20T15:05:42.044Z,75.84
2022-12-20T15:08:16.028Z,75.79
2022-12-20T15:10:48.069Z,75.99
2022-12-20T15:13:17.914Z,75.70
2022-12-20T15:15:46.079Z,75.91
2022-12-20T15:18:14.495Z,76.06
2022-12-20T15:20:43.524Z,76.56
2022-12-20T15:23:18.391Z,75.92
2022-12-20T15:25:47.006Z,76.02
2022-12-20T15:28:16.482Z,75.96
2022-12-20T15:30:44.323Z,76.06
2022-12-20T15:33:17.429Z,76.18
2022-12-20T15:35:46.042Z,76.21
2022-12-20T15:38:17.497Z,76.20
2022-12-20T15:40:49.237Z,76.11
2022-12-20T15:43:19.070Z,76.35
2022-12-20T15:45:51.343Z,76.54
2022-12-20T15:48:20.921Z,76.66
2022-12-20T15:50:54.393Z,76.63
2022-12-20T15:53:27.320Z,76.79
2022-12-20T15:55:57.487Z,76.66
2022-12-20T15:58:25.844Z,75.81
2022-12-20T16:00:56.104Z,75.63
2022-12-20T16:03:25.907Z,75.76
2022-12-20T16:05:53.615Z,75.62
2022-12-20T16:08:21.186Z,75.86
2022-12-20T16:10:52.537Z,75.95
2022-12-20T16:13:25.003Z,76.40
2022-12-20T16:15:52.862Z,76.17
2022-12-20T16:18:20.479Z,76.49
2022-12-20T16:20:48.041Z,76.54
2022-12-20T16:23:19.045Z,76.58
2022-12-20T16:25:47.534Z,74.51
2022-12-20T16:28:15.137Z,73.69
2022-12-20T16:30:50.882Z,73.50
2022-12-20T16:33:22.120Z,73.53
2022-12-20T16:35:49.772Z,74.48
2022-12-20T16:38:18.182Z,75.21
2022-12-20T16:40:45.853Z,76.10
2022-12-20T16:43:16.545Z,76.23
2022-12-20T16:45:45.517Z,76.28
2022-12-20T16:48:13.141Z,76.55
2022-12-20T16:50:43.275Z,76.41
2022-12-20T16:53:16.404Z,76.70
2022-12-20T16:55:44.411Z,76.76
2022-12-20T16:58:12.597Z,76.70
2022-12-20T17:00:40.408Z,76.68
2022-12-20T17:03:09.480Z,76.82
2022-12-20T17:05:39.491Z,76.85
2022-12-20T17:10:52.826Z,76.67
2022-12-20T17:13:20.418Z,75.76
2022-12-20T17:15:49.020Z,76.06
2022-12-20T17:18:18.118Z,76.08
2022-12-20T17:20:46.040Z,76.34
2022-12-20T17:26:00.791Z,76.56
2022-12-20T17:28:28.370Z,76.51
2022-12-20T17:30:55.993Z,76.59
2022-12-20T17:33:24.941Z,76.51
2022-12-20T17:35:52.526Z,76.65
2022-12-20T17:38:20.111Z,76.62
2022-12-20T17:40:47.712Z,76.79
2022-12-20T17:43:15.519Z,76.79
2022-12-20T17:45:43.403Z,76.91
2022-12-20T17:48:11.754Z,76.82
2022-12-20T17:50:41.032Z,76.86
2022-12-20T17:53:10.162Z,76.79
2022-12-20T17:55:37.769Z,76.67
2022-12-20T17:58:05.386Z,76.78
2022-12-20T18:00:38.885Z,76.83
2022-12-20T18:03:07.772Z,76.90
2022-12-20T18:05:35.597Z,76.94
2022-12-20T18:08:04.727Z,76.77
2022-12-20T18:10:32.882Z,76.96
2022-12-20T18:13:00.466Z,76.89
2022-12-20T18:15:28.037Z,76.73
2022-12-20T18:17:55.676Z,76.61
2022-12-20T18:20:23.648Z,76.64
2022-12-20T18:22:51.284Z,75.95
2022-12-20T18:25:20.287Z,76.32
2022-12-20T18:27:47.880Z,76.47
2022-12-20T18:30:15.758Z,76.26
2022-12-20T18:32:43.487Z,76.42
2022-12-20T18:35:11.490Z,76.52
2022-12-20T18:37:39.365Z,76.57
2022-12-20T18:40:08.988Z,76.79
2022-12-20T18:42:37.957Z,76.91
2022-12-20T18:45:06.407Z,76.95
2022-12-20T18:47:34.001Z,77.06
2022-12-20T18:50:01.580Z,77.10
2022-12-20T18:52:29.271Z,77.12
2022-12-20T18:54:56.882Z,77.24
2022-12-20T18:57:24.459Z,77.22
2022-12-20T18:59:53.466Z,77.26
2022-12-20T19:02:21.192Z,77.46
2022-12-20T19:04:48.857Z,77.52
2022-12-20T19:07:16.594Z,77.26
2022-12-20T19:09:44.272Z,77.35
2022-12-20T19:12:12.062Z,77.49
2022-12-20T19:14:39.802Z,77.51
2022-12-20T19:17:09.201Z,77.34
2022-12-20T19:19:36.929Z,77.32
2022-12-20T19:22:04.511Z,77.57
2022-12-20T19:24:32.118Z,77.82
2022-12-20T19:26:59.703Z,77.74
2022-12-20T19:29:27.357Z,77.78
2022-12-20T19:31:55.385Z,77.83
2022-12-20T19:34:24.597Z,77.50
2022-12-20T19:36:52.948Z,77.25
2022-12-20T19:39:22.923Z,75.96
2022-12-20T19:42:21.485Z,74.88
2022-12-20T19:44:39.017Z,74.92
2022-12-20T19:47:06.966Z,74.55
2022-12-20T19:49:36.685Z,74.90
2022-12-20T19:52:05.650Z,75.05
2022-12-20T19:54:33.408Z,75.56
2022-12-20T19:57:01.014Z,74.73
2022-12-20T19:59:30.197Z,73.69
2022-12-20T20:01:58.016Z,73.64
2022-12-20T20:04:25.789Z,74.24
2022-12-20T20:06:56.312Z,74.15
2022-12-20T20:09:24.140Z,74.97
2022-12-20T20:11:51.694Z,75.43
2022-12-20T20:14:19.298Z,76.29
2022-12-20T20:16:46.985Z,76.85
2022-12-20T20:19:14.613Z,75.66
2022-12-20T20:21:42.315Z,74.96
2022-12-20T20:24:11.340Z,75.33
2022-12-20T20:26:38.928Z,75.79
2022-12-20T20:29:07.139Z,75.94
2022-12-20T20:31:34.802Z,74.86
2022-12-20T20:34:02.475Z,74.55
2022-12-20T20:36:30.618Z,73.72
2022-12-20T20:38:58.296Z,73.08
2022-12-20T20:41:27.320Z,73.21
2022-12-20T20:43:54.880Z,73.43
2022-12-20T20:46:22.674Z,73.34
2022-12-20T20:48:50.319Z,73.53
2022-12-20T20:51:18.003Z,73.61
2022-12-20T20:53:45.641Z,73.06
2022-12-20T20:56:13.641Z,73.44
2022-12-20T20:58:43.454Z,74.26
2022-12-20T21:01:11.840Z,74.45
2022-12-20T21:03:40.332Z,73.71
2022-12-20T21:08:57.354Z,72.95
2022-12-20T21:11:25.208Z,73.26
2022-12-20T21:13:55.912Z,73.75
2022-12-20T21:16:24.505Z,74.51
2022-12-20T21:18:52.571Z,73.50
2022-12-20T21:21:21.302Z,72.97
2022-12-20T21:23:49.554Z,73.30
2022-12-20T21:26:19.043Z,74.23
2022-12-20T21:28:47.060Z,74.75
2022-12-20T21:31:18.555Z,75.33
2022-12-20T21:33:46.811Z,74.93
2022-12-20T21:36:16.028Z,75.21
2022-12-20T21:38:48.566Z,75.64
2022-12-20T21:41:16.173Z,75.88
2022-12-20T21:43:44.178Z,76.15
2022-12-20T21:46:12.178Z,75.08
2022-12-20T21:48:42.156Z,74.77
2022-12-20T21:51:11.875Z,75.02
2022-12-20T21:53:43.314Z,73.89
2022-12-20T21:56:11.303Z,74.31
2022-12-20T21:58:39.030Z,75.11
2022-12-20T22:01:08.033Z,75.34
2022-12-20T22:03:36.724Z,75.53
2022-12-20T22:06:06.282Z,75.97
2022-12-20T22:08:34.815Z,76.10
2022-12-20T22:11:04.534Z,76.06
2022-12-20T22:13:38.989Z,74.62
2022-12-20T22:16:10.442Z,74.23
2022-12-20T22:18:38.911Z,73.97
2022-12-20T22:21:10.195Z,73.46
2022-12-20T22:23:38.410Z,74.19
2022-12-20T22:26:07.319Z,74.78
2022-12-20T22:28:35.138Z,75.37
2022-12-20T22:31:08.210Z,75.05
2022-12-20T22:33:36.093Z,74.95
2022-12-20T22:36:04.709Z,75.35
2022-12-20T22:38:34.070Z,75.68
2022-12-20T22:41:08.466Z,75.75
2022-12-20T22:43:37.524Z,75.26
2022-12-20T22:46:05.876Z,75.52
2022-12-20T22:49:24.612Z,75.74
2022-12-20T22:52:07.222Z,76.29
2022-12-20T22:54:38.746Z,76.44
2022-12-20T22:57:06.396Z,76.42
2022-12-20T22:59:39.599Z,76.54
2022-12-20T23:02:10.568Z,76.66
2022-12-20T23:04:39.411Z,76.56
2022-12-20T23:07:07.333Z,76.86
2022-12-20T23:09:39.487Z,76.89
2022-12-20T23:12:36.480Z,76.94
2022-12-20T23:15:21.240Z,76.84
2022-12-20T23:17:48.841Z,76.94
2022-12-20T23:20:34.155Z,77.16
2022-12-20T23:23:01.769Z,76.49
2022-12-20T23:25:30.743Z,76.83
2022-12-20T23:27:58.346Z,74.94
2022-12-20T23:30:26.580Z,74.02
2022-12-20T23:32:56.146Z,73.78
2022-12-20T23:35:24.697Z,74.54
2022-12-20T23:37:52.574Z,75.39
2022-12-20T23:40:20.380Z,76.04
2022-12-20T23:42:49.306Z,76.42
2022-12-20T23:45:17.026Z,76.09
2022-12-20T23:47:44.642Z,76.12
2022-12-20T23:50:12.462Z,75.14
2022-12-20T23:52:40.449Z,75.04
2022-12-20T23:55:09.411Z,73.44
2022-12-20T23:57:37.046Z,73.77
